Time;durP1;ratioP1;P1;durP2;ratioP2;P2;SDS_P1;SDS_P2;PMS_P1;PMS_P2;Temp;Humidity;BMP_temperature;BMP_pressure;BME280_temperature;BME280_humidity;BME280_pressure;Samples;Min_cycle;Max_cycle;Signal;HPM_P1;HPM_P2
2023/12/21 00:01:20;;;;;;;562.40;249.90;;;;;;;7.54;100.00;97497.94;4994761;28;20624;-53
2023/12/21 00:03:45;;;;;;;513.60;249.02;;;;;;;7.09;100.00;97493.53;4996265;28;20112;-55
2023/12/21 00:06:10;;;;;;;499.55;248.45;;;;;;;7.85;100.00;97478.94;4993132;28;20281;-54
2023/12/21 00:08:35;;;;;;;595.95;252.77;;;;;;;7.69;100.00;97490.16;4995375;28;20065;-54
2023/12/21 00:11:01;;;;;;;480.23;248.38;;;;;;;8.44;100.00;97491.81;4998289;28;20239;-54
2023/12/21 00:13:26;;;;;;;593.55;251.70;;;;;;;7.76;100.00;97491.03;4998905;28;20385;-55
2023/12/21 00:15:53;;;;;;;530.15;249.65;;;;;;;7.12;100.00;97485.78;4993990;28;20026;-54
2023/12/21 00:18:18;;;;;;;541.13;250.82;;;;;;;8.04;100.00;97477.19;4996185;28;20124;-55
2023/12/21 00:20:44;;;;;;;542.70;251.55;;;;;;;7.84;100.00;97474.63;4994298;28;20125;-54
2023/12/21 00:23:09;;;;;;;484.33;247.63;;;;;;;7.86;100.00;97473.75;4994496;28;20034;-53
2023/12/21 00:25:34;;;;;;;546.80;250.82;;;;;;;7.38;100.00;97472.03;4993585;28;20049;-55
2023/12/21 00:28:00;;;;;;;545.42;254.35;;;;;;;8.03;100.00;97468.59;4995469;28;20029;-53
2023/12/21 00:30:25;;;;;;;564.80;252.93;;;;;;;7.95;100.00;97463.41;4993214;28;20034;-54
2023/12/21 00:32:51;;;;;;;542.22;250.05;;;;;;;6.99;100.00;97474.56;4995531;28;20057;-55
2023/12/21 00:35:17;;;;;;;519.95;251.65;;;;;;;6.86;100.00;97457.25;4994341;28;20134;-54
2023/12/21 00:37:42;;;;;;;518.33;250.40;;;;;;;7.18;100.00;97469.44;4994641;28;20026;-54
2023/12/21 00:40:08;;;;;;;494.80;253.50;;;;;;;7.31;100.00;97459.09;4993150;28;20285;-53
2023/12/21 00:42:34;;;;;;;637.80;255.98;;;;;;;7.05;100.00;97470.25;4994718;28;20057;-53
2023/12/21 00:44:59;;;;;;;505.55;250.73;;;;;;;6.69;100.00;97458.09;4996187;28;20564;-55
2023/12/21 00:47:25;;;;;;;490.10;247.73;;;;;;;6.79;100.00;97461.56;4993422;28;20042;-55
2023/12/21 00:49:50;;;;;;;562.97;255.70;;;;;;;7.15;100.00;97452.19;4994520;28;20262;-53
2023/12/21 00:52:16;;;;;;;532.60;251.45;;;;;;;6.83;100.00;97447.78;4994968;28;20517;-53
2023/12/21 00:54:41;;;;;;;579.17;252.90;;;;;;;6.95;100.00;97436.63;4995533;28;20037;-54
2023/12/21 00:57:07;;;;;;;533.67;252.85;;;;;;;7.32;100.00;97441.00;4998357;28;20494;-53
2023/12/21 00:59:32;;;;;;;552.88;252.95;;;;;;;7.03;100.00;97439.22;4996022;28;20508;-53
2023/12/21 01:01:57;;;;;;;515.50;252.18;;;;;;;6.94;100.00;97429.72;4999012;28;20501;-53
2023/12/21 01:04:26;;;;;;;549.28;253.77;;;;;;;7.05;100.00;97431.47;4999281;28;20014;-52
2023/12/21 01:06:51;;;;;;;552.25;254.48;;;;;;;7.32;100.00;97432.38;4995373;28;20097;-53
2023/12/21 01:09:16;;;;;;;571.45;253.73;;;;;;;6.76;100.00;97420.22;4998686;28;20021;-52
2023/12/21 01:11:42;;;;;;;585.28;254.82;;;;;;;6.49;100.00;97416.66;4995926;28;20045;-54
2023/12/21 01:14:07;;;;;;;535.25;251.18;;;;;;;7.14;100.00;97416.84;4996894;28;20318;-54
2023/12/21 01:16:32;;;;;;;564.20;254.02;;;;;;;7.01;100.00;97404.72;4997893;28;20038;-52
2023/12/21 01:18:58;;;;;;;531.08;254.35;;;;;;;7.23;100.00;97407.34;4998934;28;20068;-54
2023/12/21 01:21:24;;;;;;;533.67;253.18;;;;;;;6.79;100.00;97396.94;4998967;28;20045;-54
2023/12/21 01:23:50;;;;;;;508.50;252.57;;;;;;;6.74;100.00;97390.91;4998323;28;20083;-54
2023/12/21 01:26:15;;;;;;;534.67;253.63;;;;;;;6.95;100.00;97384.06;4998416;28;20037;-55
2023/12/21 01:28:40;;;;;;;576.15;256.10;;;;;;;6.82;100.00;97390.91;4998950;28;20026;-55
2023/12/21 01:31:07;;;;;;;487.33;250.10;;;;;;;6.69;100.00;97397.78;4998430;28;20498;-54
2023/12/21 01:33:32;;;;;;;588.95;253.88;;;;;;;6.74;100.00;97389.19;4997087;28;20025;-53
2023/12/21 01:35:57;;;;;;;513.50;251.43;;;;;;;7.32;100.00;97378.03;4999899;28;20044;-53
2023/12/21 01:38:22;;;;;;;532.63;260.38;;;;;;;7.01;100.00;97381.47;4997041;28;20504;-54
2023/12/21 01:40:48;;;;;;;539.50;254.10;;;;;;;7.18;100.00;97384.06;4997168;28;20042;-54
2023/12/21 01:43:13;;;;;;;523.58;258.15;;;;;;;6.88;100.00;97378.88;4997933;28;20253;-53
2023/12/21 01:45:39;;;;;;;562.70;254.07;;;;;;;7.02;100.00;97378.88;4997652;28;20444;-53
2023/12/21 01:48:04;;;;;;;518.78;251.30;;;;;;;6.82;100.00;97371.09;4995257;28;20038;-53
2023/12/21 01:50:30;;;;;;;559.67;252.85;;;;;;;6.92;100.00;97372.00;4998961;28;20752;-53
2023/12/21 01:52:58;;;;;;;454.92;249.80;;;;;;;7.21;100.00;97357.34;4998287;28;20038;-53
2023/12/21 01:55:24;;;;;;;520.80;251.57;;;;;;;6.92;100.00;97347.84;4996655;28;20500;-52
2023/12/21 01:57:50;;;;;;;539.80;253.95;;;;;;;6.93;100.00;97349.56;4994969;28;20594;-53
2023/12/21 02:00:16;;;;;;;511.92;255.73;;;;;;;6.95;100.00;97343.56;4995420;28;20034;-53
2023/12/21 02:02:42;;;;;;;564.10;257.60;;;;;;;7.25;100.00;97347.00;4996461;28;20257;-52
2023/12/21 02:05:07;;;;;;;530.88;257.45;;;;;;;7.11;100.00;97344.41;4996171;28;20274;-53
2023/12/21 02:07:33;;;;;;;580.15;257.42;;;;;;;6.79;100.00;97350.41;4995932;28;20033;-54
2023/12/21 02:09:58;;;;;;;524.65;254.35;;;;;;;7.11;100.00;97338.38;4996818;28;20438;-53
2023/12/21 02:12:23;;;;;;;547.95;256.98;;;;;;;7.41;100.00;97352.16;4998381;28;20052;-54
2023/12/21 02:14:49;;;;;;;521.83;254.68;;;;;;;7.25;100.00;97346.13;4994699;28;20041;-54
2023/12/21 02:17:20;;;;;;;488.92;253.07;;;;;;;6.98;100.00;97334.94;4996819;28;20126;-54
2023/12/21 02:19:47;;;;;;;613.38;258.52;;;;;;;7.21;100.00;97339.25;4994063;28;20532;-54
2023/12/21 02:22:15;;;;;;;540.85;255.27;;;;;;;7.26;100.00;97340.09;4997239;28;20034;-54
2023/12/21 02:24:40;;;;;;;591.00;258.55;;;;;;;7.10;100.00;97337.53;4994552;28;20055;-53
2023/12/21 02:27:06;;;;;;;511.65;254.75;;;;;;;7.35;100.00;97334.06;4997056;28;20475;-53
2023/12/21 02:29:31;;;;;;;603.50;261.20;;;;;;;7.16;100.00;97334.94;4996271;28;20028;-53
2023/12/21 02:31:56;;;;;;;470.15;254.95;;;;;;;7.46;100.00;97316.78;4993778;28;20360;-53
2023/12/21 02:34:22;;;;;;;555.55;264.63;;;;;;;7.45;100.00;97309.06;4995680;28;20486;-54
2023/12/21 02:36:47;;;;;;;560.95;260.27;;;;;;;7.43;100.00;97309.91;4995928;28;20030;-52
2023/12/21 02:39:12;;;;;;;578.58;260.90;;;;;;;7.81;100.00;97307.22;4993753;28;20743;-53
2023/12/21 02:41:38;;;;;;;610.55;262.30;;;;;;;7.15;100.00;97311.66;4994692;28;20123;-51
2023/12/21 02:44:03;;;;;;;536.60;258.73;;;;;;;7.42;100.00;97281.44;4995459;28;20026;-53
2023/12/21 02:46:28;;;;;;;543.58;259.00;;;;;;;7.14;100.00;97277.19;4996624;28;20042;-52
2023/12/21 02:48:54;;;;;;;545.72;259.70;;;;;;;7.10;100.00;97267.72;4998607;28;20054;-51
2023/12/21 02:51:19;;;;;;;552.15;259.95;;;;;;;7.29;100.00;97259.91;4996190;28;20373;-53
2023/12/21 02:53:44;;;;;;;567.00;269.08;;;;;;;7.49;100.00;97240.88;4995764;28;20026;-52
2023/12/21 02:56:10;;;;;;;533.33;258.95;;;;;;;7.80;100.00;97220.91;4994692;28;20132;-51
2023/12/21 02:58:36;;;;;;;603.03;264.00;;;;;;;6.94;100.00;97225.47;4993827;28;20036;-53
2023/12/21 03:01:02;;;;;;;509.42;261.42;;;;;;;7.32;100.00;97223.72;4995987;28;20044;-52
2023/12/21 03:03:27;;;;;;;538.70;260.58;;;;;;;7.16;100.00;97207.34;4996983;28;20325;-52
2023/12/21 03:05:53;;;;;;;546.30;258.02;;;;;;;7.19;100.00;97214.25;4996099;28;20642;-54
2023/12/21 03:08:18;;;;;;;524.28;258.27;;;;;;;7.12;100.00;97209.09;4995926;28;20025;-54
2023/12/21 03:10:44;;;;;;;650.10;265.42;;;;;;;7.36;100.00;97206.44;4994724;28;20057;-53
2023/12/21 03:13:09;;;;;;;543.63;258.45;;;;;;;7.76;100.00;97208.03;4995995;28;20449;-52
2023/12/21 03:15:34;;;;;;;578.72;263.10;;;;;;;7.61;100.00;97219.28;4993596;28;20287;-53
2023/12/21 03:17:59;;;;;;;549.25;260.73;;;;;;;7.68;100.00;97195.09;4996987;28;20041;-54
2023/12/21 03:20:25;;;;;;;546.53;259.73;;;;;;;7.20;100.00;97213.38;4994586;28;20030;-53
2023/12/21 03:22:50;;;;;;;524.85;258.65;;;;;;;7.13;100.00;97197.03;4994243;28;20045;-53
2023/12/21 03:25:15;;;;;;;567.00;259.48;;;;;;;7.16;100.00;97186.66;4996573;28;20164;-54
2023/12/21 03:27:41;;;;;;;619.22;260.98;;;;;;;7.03;100.00;97185.84;4994809;28;20034;-53
2023/12/21 03:30:07;;;;;;;520.78;257.15;;;;;;;7.27;100.00;97197.84;4999108;28;20053;-53
2023/12/21 03:32:32;;;;;;;637.45;283.10;;;;;;;7.46;100.00;97178.81;4994155;28;20053;-54
2023/12/21 03:34:57;;;;;;;541.72;259.48;;;;;;;7.47;100.00;97172.78;4996403;28;20545;-55
2023/12/21 03:37:27;;;;;;;525.28;257.65;;;;;;;7.23;100.00;97203.00;4996478;28;20045;-54
2023/12/21 03:39:54;;;;;;;600.45;261.35;;;;;;;7.09;100.00;97193.56;4993970;28;20025;-53
2023/12/21 03:42:19;;;;;;;534.45;257.30;;;;;;;6.80;100.00;97188.44;4995027;28;20054;-52
2023/12/21 03:44:45;;;;;;;582.58;260.38;;;;;;;7.00;100.00;97178.94;4997286;28;20022;-53
2023/12/21 03:47:10;;;;;;;584.30;262.55;;;;;;;6.84;100.00;97183.28;4995067;28;20045;-53
2023/12/21 03:49:35;;;;;;;634.47;266.75;;;;;;;6.64;100.00;97183.28;4994221;28;20454;-54
2023/12/21 03:52:01;;;;;;;504.75;258.77;;;;;;;6.83;100.00;97170.38;4995236;28;20442;-53
2023/12/21 03:54:26;;;;;;;574.47;261.98;;;;;;;6.66;100.00;97160.91;4995621;28;20112;-53
2023/12/21 03:56:51;;;;;;;524.20;259.77;;;;;;;7.49;100.00;97152.91;4994164;28;20037;-55
2023/12/21 03:59:17;;;;;;;579.75;263.05;;;;;;;7.23;100.00;97151.28;4998326;28;20105;-53
2023/12/21 04:01:42;;;;;;;654.17;266.33;;;;;;;6.96;100.00;97153.09;4992728;28;20042;-52
2023/12/21 04:04:07;;;;;;;532.58;264.27;;;;;;;7.37;100.00;97144.34;4994281;28;20037;-54
2023/12/21 04:06:33;;;;;;;553.60;262.75;;;;;;;7.46;100.00;97142.59;4994178;28;20171;-53
2023/12/21 04:08:58;;;;;;;592.90;264.17;;;;;;;7.47;100.00;97133.97;4995334;28;20044;-52
2023/12/21 04:11:24;;;;;;;542.25;268.85;;;;;;;7.67;100.00;97132.13;4994859;28;20517;-54
2023/12/21 04:13:50;;;;;;;613.13;276.48;;;;;;;7.54;100.00;97118.38;4996617;28;20539;-53
2023/12/21 04:16:15;;;;;;;592.95;266.50;;;;;;;7.09;100.00;97107.38;4994550;28;20332;-52
2023/12/21 04:18:40;;;;;;;616.10;270.63;;;;;;;7.27;100.00;97114.19;4994656;28;20029;-53
2023/12/21 04:21:07;;;;;;;537.60;260.75;;;;;;;7.33;100.00;97121.94;4994284;28;20045;-53
2023/12/21 04:23:33;;;;;;;525.50;263.67;;;;;;;7.18;100.00;97114.25;4995353;28;20048;-55
2023/12/21 04:25:58;;;;;;;490.83;257.45;;;;;;;7.12;100.00;97133.22;4996212;28;20235;-53
2023/12/21 04:28:23;;;;;;;542.97;260.25;;;;;;;7.18;100.00;97117.69;4998153;28;20450;-53
2023/12/21 04:30:49;;;;;;;606.72;263.65;;;;;;;7.20;100.00;97100.44;4996737;28;20054;-52
2023/12/21 04:33:14;;;;;;;526.90;259.08;;;;;;;7.11;100.00;97100.47;5001348;28;20113;-54
2023/12/21 04:35:43;;;;;;;617.70;266.98;;;;;;;7.28;100.00;97084.91;4997042;28;20103;-54
2023/12/21 04:38:08;;;;;;;556.55;260.95;;;;;;;7.49;100.00;97081.34;4997427;28;20031;-53
2023/12/21 04:40:33;;;;;;;587.25;286.88;;;;;;;7.13;100.00;97068.56;4998919;28;20072;-53
2023/12/21 04:42:59;;;;;;;531.53;258.83;;;;;;;7.48;100.00;97065.81;4999013;28;20018;-53
2023/12/21 04:45:24;;;;;;;544.15;259.00;;;;;;;6.90;100.00;97074.69;4996382;28;20053;-54
2023/12/21 04:47:50;;;;;;;573.15;260.42;;;;;;;7.06;100.00;97082.41;4997083;28;20041;-53
2023/12/21 04:50:15;;;;;;;542.35;258.92;;;;;;;7.39;100.00;97070.16;4998291;28;20018;-53
2023/12/21 04:52:40;;;;;;;616.92;265.65;;;;;;;7.43;100.00;97066.69;4997776;28;20693;-53
2023/12/21 04:55:06;;;;;;;526.92;258.75;;;;;;;7.37;100.00;97056.41;5000158;28;20023;-53
2023/12/21 04:57:31;;;;;;;528.33;259.02;;;;;;;7.24;100.00;97049.56;4997726;28;20503;-53
2023/12/21 04:59:56;;;;;;;599.25;263.85;;;;;;;7.21;100.00;97063.38;4996123;28;20026;-53
2023/12/21 05:02:22;;;;;;;527.22;261.02;;;;;;;7.49;100.00;97046.81;4996858;28;20037;-53
2023/12/21 05:04:47;;;;;;;567.90;259.92;;;;;;;7.52;100.00;97060.63;4997569;28;20049;-52
2023/12/21 05:07:13;;;;;;;537.92;257.83;;;;;;;7.48;100.00;97063.22;4998149;28;20127;-52
2023/12/21 05:09:38;;;;;;;595.92;264.05;;;;;;;7.27;100.00;97055.56;4998748;28;20029;-54
2023/12/21 05:12:04;;;;;;;527.60;260.65;;;;;;;7.57;100.00;97057.16;4998328;28;20034;-52
2023/12/21 05:14:29;;;;;;;557.42;260.48;;;;;;;7.75;100.00;97056.16;4997507;28;20108;-52
2023/12/21 05:16:55;;;;;;;567.30;260.77;;;;;;;7.56;100.00;97051.09;4997267;28;20046;-53
2023/12/21 05:19:20;;;;;;;565.70;266.73;;;;;;;7.68;100.00;97043.25;5000360;28;20036;-53
2023/12/21 05:21:45;;;;;;;666.50;268.58;;;;;;;7.57;100.00;97039.88;4996074;28;20034;-53
2023/12/21 05:24:11;;;;;;;531.88;257.77;;;;;;;7.33;100.00;97031.41;4997156;28;20026;-53
2023/12/21 05:26:36;;;;;;;560.63;260.42;;;;;;;7.46;100.00;97039.09;4996938;28;20628;-54
2023/12/21 05:29:02;;;;;;;573.53;260.05;;;;;;;7.24;100.00;97034.91;4997387;28;20018;-54
2023/12/21 05:31:27;;;;;;;526.20;255.93;;;;;;;7.45;100.00;97034.81;4995604;28;20052;-53
2023/12/21 05:33:53;;;;;;;639.15;264.98;;;;;;;7.41;100.00;97032.22;4997675;28;20060;-53
2023/12/21 05:36:22;;;;;;;575.53;259.92;;;;;;;7.95;100.00;97018.03;4997385;28;20069;-53
2023/12/21 05:38:48;;;;;;;591.17;262.83;;;;;;;7.87;100.00;97017.22;4996607;28;20017;-52
2023/12/21 05:41:14;;;;;;;498.30;256.77;;;;;;;7.68;100.00;97012.19;4994144;28;20054;-53
2023/12/21 05:43:40;;;;;;;554.15;259.27;;;;;;;7.54;100.00;97004.53;4997289;28;20304;-53
2023/12/21 05:46:06;;;;;;;527.85;260.20;;;;;;;7.48;100.00;97002.00;4996707;28;20064;-52
2023/12/21 05:48:31;;;;;;;545.47;261.50;;;;;;;8.04;100.00;96992.91;4997787;28;20041;-53
2023/12/21 05:50:57;;;;;;;516.65;260.23;;;;;;;7.73;100.00;96999.25;4996203;28;20045;-53
2023/12/21 05:53:22;;;;;;;545.53;261.27;;;;;;;8.00;100.00;97004.19;4998399;28;20087;-53
2023/12/21 05:55:48;;;;;;;617.15;268.90;;;;;;;8.07;100.00;96995.50;4998181;28;20117;-54
2023/12/21 05:58:14;;;;;;;543.40;261.80;;;;;;;7.74;100.00;96984.53;4997688;28;20040;-53
2023/12/21 06:00:39;;;;;;;581.08;263.40;;;;;;;7.62;100.00;96980.34;4993451;28;20068;-54
2023/12/21 06:03:04;;;;;;;532.35;260.50;;;;;;;7.49;100.00;96985.59;4997803;28;20382;-54
2023/12/21 06:05:30;;;;;;;561.45;260.88;;;;;;;7.49;100.00;96989.91;4996601;28;20041;-52
2023/12/21 06:07:56;;;;;;;521.45;258.83;;;;;;;7.56;100.00;96986.41;4996918;28;21267;-55
2023/12/21 06:10:21;;;;;;;529.97;260.63;;;;;;;7.32;100.00;96984.84;4996838;28;20022;-54
2023/12/21 06:12:46;;;;;;;602.25;258.77;;;;;;;7.22;100.00;96994.41;4996261;28;20042;-54
2023/12/21 06:15:13;;;;;;;517.47;255.40;;;;;;;7.71;100.00;96979.41;4995403;28;20453;-55
2023/12/21 06:17:38;;;;;;;559.35;258.23;;;;;;;7.26;100.00;96981.44;4996565;28;20433;-53
2023/12/21 06:20:04;;;;;;;608.97;261.77;;;;;;;7.32;100.00;96957.28;4996392;28;20308;-54
2023/12/21 06:22:29;;;;;;;555.95;263.65;;;;;;;7.40;100.00;96952.91;4998090;28;20073;-62
2023/12/21 06:24:54;;;;;;;628.85;265.30;;;;;;;7.79;100.00;96949.13;4996227;28;20030;-55
2023/12/21 06:27:20;;;;;;;611.22;264.50;;;;;;;8.29;100.00;96940.88;4994176;28;20458;-54
2023/12/21 06:29:45;;;;;;;621.97;265.90;;;;;;;7.89;100.00;96940.41;4992109;28;20033;-54
2023/12/21 06:32:11;;;;;;;541.08;259.27;;;;;;;7.97;100.00;96942.09;4994598;28;20062;-54
2023/12/21 06:34:36;;;;;;;552.80;260.48;;;;;;;7.56;100.00;96932.06;4996287;28;20446;-53
2023/12/21 06:37:04;;;;;;;509.45;258.92;;;;;;;7.77;100.00;96927.59;4995217;28;20034;-54
2023/12/21 06:39:31;;;;;;;554.15;258.65;;;;;;;7.92;100.00;96924.88;4993302;28;20507;-53
2023/12/21 06:41:56;;;;;;;648.00;268.00;;;;;;;7.99;100.00;96922.19;4997047;28;20034;-52
2023/12/21 06:44:22;;;;;;;526.13;258.38;;;;;;;7.56;100.00;96919.13;4997652;28;20083;-53
2023/12/21 06:46:47;;;;;;;658.10;267.33;;;;;;;7.81;100.00;96913.75;4991339;28;20041;-54
2023/12/21 06:49:12;;;;;;;613.67;272.20;;;;;;;7.91;100.00;96907.59;4996276;28;20037;-53
2023/12/21 06:51:38;;;;;;;519.00;258.65;;;;;;;7.62;100.00;96910.47;4995257;28;20267;-53
2023/12/21 06:54:04;;;;;;;498.63;256.27;;;;;;;7.30;100.00;96904.69;4996011;28;20018;-53
2023/12/21 06:56:29;;;;;;;569.95;261.45;;;;;;;7.78;100.00;96903.41;4996111;28;20266;-54
2023/12/21 06:58:55;;;;;;;650.05;268.10;;;;;;;7.73;100.00;96915.53;4993035;28;20018;-54
2023/12/21 07:01:27;;;;;;;542.90;260.50;;;;;;;8.06;100.00;96908.31;4994488;28;20050;-55
2023/12/21 07:03:53;;;;;;;640.13;268.60;;;;;;;7.95;100.00;96891.16;4995094;28;20521;-52
2023/12/21 07:06:18;;;;;;;541.63;261.27;;;;;;;8.48;100.00;96879.34;4994421;28;20297;-54
2023/12/21 07:08:43;;;;;;;619.70;270.02;;;;;;;8.25;100.00;96870.13;4991642;28;20350;-53
2023/12/21 07:11:09;;;;;;;538.10;261.88;;;;;;;8.17;100.00;96874.53;4995320;28;20068;-51
2023/12/21 07:13:35;;;;;;;531.40;260.48;;;;;;;7.73;100.00;96885.34;4996630;28;20140;-53
2023/12/21 07:16:00;;;;;;;561.42;263.17;;;;;;;7.50;100.00;96886.41;4992391;28;20093;-52
2023/12/21 07:18:26;;;;;;;543.80;261.80;;;;;;;8.50;100.00;96876.72;4994745;28;20426;-54
2023/12/21 07:20:52;;;;;;;642.80;271.08;;;;;;;8.01;100.00;96881.59;4995226;28;20229;-52
2023/12/21 07:23:18;;;;;;;569.55;262.27;;;;;;;7.62;100.00;96880.28;4992981;28;20045;-52
2023/12/21 07:25:43;;;;;;;598.08;265.85;;;;;;;7.67;100.00;96885.41;4994397;28;20034;-53
2023/12/21 07:28:09;;;;;;;549.03;262.27;;;;;;;7.85;100.00;96871.44;4994720;28;20048;-54
2023/12/21 07:30:34;;;;;;;567.78;263.65;;;;;;;7.88;100.00;96866.22;4994597;28;20046;-53
2023/12/21 07:32:59;;;;;;;505.88;259.60;;;;;;;8.06;100.00;96865.13;4995551;28;20029;-52
2023/12/21 07:35:25;;;;;;;564.53;266.48;;;;;;;8.15;100.00;96853.84;4992756;28;20592;-52
2023/12/21 07:37:50;;;;;;;567.22;265.42;;;;;;;7.90;100.00;96868.78;4995094;28;20481;-53
2023/12/21 07:40:15;;;;;;;523.33;263.42;;;;;;;8.37;100.00;96874.28;4994979;28;20045;-51
2023/12/21 07:42:41;;;;;;;523.22;262.17;;;;;;;8.32;100.00;96871.75;4994450;28;20022;-53
2023/12/21 07:45:06;;;;;;;568.50;265.50;;;;;;;8.46;100.00;96857.75;4993872;28;20495;-53
2023/12/21 07:47:32;;;;;;;515.33;262.02;;;;;;;8.40;100.00;96866.47;4995182;28;20137;-52
2023/12/21 07:49:57;;;;;;;711.70;279.40;;;;;;;8.81;100.00;96850.41;4993884;28;20112;-53
2023/12/21 07:52:22;;;;;;;556.42;263.38;;;;;;;8.24;100.00;96849.41;4995737;28;20293;-54
2023/12/21 07:54:48;;;;;;;612.28;267.17;;;;;;;8.55;100.00;96862.00;4992680;28;20035;-53
2023/12/21 07:57:14;;;;;;;557.05;262.65;;;;;;;8.39;100.00;96856.13;4995775;28;20064;-53
2023/12/21 07:59:40;;;;;;;563.38;264.88;;;;;;;8.59;100.00;96851.59;4995381;28;20026;-53
2023/12/21 08:02:06;;;;;;;475.55;250.93;;;;;;;8.00;100.00;96835.88;4988458;28;20434;-52
2023/12/21 08:04:32;;;;;;;504.88;251.73;;;;;;;8.13;100.00;96840.03;5002784;28;20137;-53
2023/12/21 08:06:57;;;;;;;570.10;249.88;;;;;;;8.69;100.00;96847.09;5001258;28;20432;-53
2023/12/21 08:09:22;;;;;;;514.92;253.35;;;;;;;8.01;100.00;96848.81;5003182;28;20041;-53
2023/12/21 08:11:48;;;;;;;630.28;260.15;;;;;;;8.06;100.00;96841.84;5000670;28;20034;-53
2023/12/21 08:14:13;;;;;;;497.77;244.10;;;;;;;8.27;100.00;96841.59;5003499;28;20072;-53
2023/12/21 08:16:39;;;;;;;478.83;246.50;;;;;;;8.85;100.00;96833.94;5003928;28;20041;-53
2023/12/21 08:19:04;;;;;;;504.05;250.93;;;;;;;8.79;100.00;96836.59;5002688;28;20026;-53
2023/12/21 08:21:30;;;;;;;517.88;256.27;;;;;;;8.12;100.00;96833.13;4987917;28;20046;-53
2023/12/21 08:23:55;;;;;;;614.17;262.55;;;;;;;7.99;100.00;96827.25;5001407;28;20310;-54
2023/12/21 08:26:21;;;;;;;491.75;253.32;;;;;;;8.05;100.00;96813.38;5001469;28;20172;-53
2023/12/21 08:28:46;;;;;;;556.30;260.55;;;;;;;8.38;100.00;96800.03;5002263;28;20018;-53
2023/12/21 08:31:23;;;;;;;475.45;254.82;;;;;;;8.15;100.00;96798.56;5000337;28;20579;-53
2023/12/21 08:33:48;;;;;;;598.70;263.98;;;;;;;8.15;100.00;96790.81;5000381;28;20028;-53
2023/12/21 08:36:14;;;;;;;532.05;257.92;;;;;;;8.03;100.00;96794.41;5001861;28;20046;-53
2023/12/21 08:38:40;;;;;;;484.65;248.05;;;;;;;8.17;100.00;96787.31;5003610;28;20799;-53
2023/12/21 08:41:05;;;;;;;443.45;245.50;;;;;;;8.57;100.00;96777.31;4997708;28;20073;-53
2023/12/21 08:43:32;;;;;;;524.83;245.10;;;;;;;8.75;100.00;96773.56;5001584;28;20474;-53
2023/12/21 08:45:58;;;;;;;634.33;266.10;;;;;;;8.76;100.00;96769.25;4999832;28;20045;-54
2023/12/21 08:48:23;;;;;;;493.05;251.02;;;;;;;8.23;100.00;96762.22;5000728;28;20041;-54
2023/12/21 08:50:48;;;;;;;619.00;257.50;;;;;;;8.61;100.00;96765.16;4998299;28;20476;-54
2023/12/21 08:53:14;;;;;;;487.48;251.82;;;;;;;8.29;100.00;96752.63;5002103;28;20445;-53
2023/12/21 08:55:39;;;;;;;441.63;247.80;;;;;;;8.57;100.00;96746.19;5002765;28;20364;-53
2023/12/21 08:58:04;;;;;;;524.28;253.10;;;;;;;9.07;100.00;96735.03;4999832;28;20499;-53
2023/12/21 09:00:30;;;;;;;512.58;254.80;;;;;;;9.19;100.00;96721.84;5001043;28;20076;-53
2023/12/21 09:02:55;;;;;;;589.25;257.88;;;;;;;8.96;100.00;96707.56;5000503;28;20033;-53
2023/12/21 09:05:20;;;;;;;509.13;254.70;;;;;;;8.83;100.00;96706.03;5001314;28;20489;-53
2023/12/21 09:07:46;;;;;;;489.42;253.30;;;;;;;8.98;100.00;96707.50;5002515;28;20028;-53
2023/12/21 09:10:12;;;;;;;506.80;253.73;;;;;;;8.54;100.00;96699.63;5002247;28;20019;-53
2023/12/21 09:12:38;;;;;;;526.08;253.15;;;;;;;8.80;100.00;96680.19;5002217;28;20895;-54
2023/12/21 09:15:04;;;;;;;694.67;302.20;;;;;;;9.07;100.00;96680.56;4999739;28;20478;-55
2023/12/21 09:17:29;;;;;;;495.65;244.82;;;;;;;8.57;100.00;96666.72;5000202;28;20146;-54
2023/12/21 09:19:55;;;;;;;682.83;255.63;;;;;;;8.82;100.00;96657.66;5001924;28;20045;-53
2023/12/21 09:22:21;;;;;;;491.38;243.13;;;;;;;9.01;100.00;96662.53;4999805;28;20101;-53
2023/12/21 09:24:47;;;;;;;466.17;233.63;;;;;;;9.14;100.00;96652.78;5001680;28;20477;-52
2023/12/21 09:27:14;;;;;;;529.25;246.00;;;;;;;8.97;100.00;96628.00;4995825;28;20634;-53
2023/12/21 09:29:39;;;;;;;481.50;240.52;;;;;;;9.33;100.00;96622.16;5001966;28;20033;-53
2023/12/21 09:32:05;;;;;;;645.47;262.35;;;;;;;9.45;100.00;96631.41;5000591;28;20512;-53
2023/12/21 09:34:31;;;;;;;533.13;252.80;;;;;;;8.82;100.00;96618.78;5000739;28;20038;-54
2023/12/21 09:36:56;;;;;;;602.03;264.33;;;;;;;8.72;100.00;96603.41;4998906;28;20405;-54
2023/12/21 09:39:22;;;;;;;533.50;249.55;;;;;;;8.91;100.00;96605.66;5001498;28;20065;-55
2023/12/21 09:41:47;;;;;;;509.52;244.65;;;;;;;9.22;100.00;96605.06;5000066;28;20041;-54
2023/12/21 09:44:17;;;;;;;478.52;245.35;;;;;;;9.30;100.00;96602.31;5000332;28;20283;-53
2023/12/21 09:46:48;;;;;;;511.58;248.15;;;;;;;9.38;100.00;96600.41;5001343;28;20033;-54
2023/12/21 09:49:16;;;;;;;525.88;247.90;;;;;;;9.33;100.00;96591.00;4998285;28;20053;-53
2023/12/21 09:51:44;;;;;;;479.48;239.07;;;;;;;9.25;100.00;96591.19;4998847;28;20041;-53
2023/12/21 09:54:11;;;;;;;512.75;243.88;;;;;;;8.96;100.00;96585.69;4997159;28;20041;-54
2023/12/21 09:56:37;;;;;;;565.92;274.80;;;;;;;9.35;100.00;96568.47;4999305;28;20470;-53
2023/12/21 09:59:56;;;;;;;546.13;198.50;;;;;;;7.86;100.00;96571.97;5035219;28;20139;-55
2023/12/21 10:02:26;;;;;;;352.23;151.57;;;;;;;6.54;100.00;96556.44;5002995;28;20130;-54
2023/12/21 10:04:52;;;;;;;368.13;157.38;;;;;;;6.22;100.00;96561.91;4998047;28;20030;-54
2023/12/21 10:07:17;;;;;;;721.72;314.20;;;;;;;6.12;100.00;96553.38;5019942;28;20034;-54
2023/12/21 10:09:43;;;;;;;407.25;174.60;;;;;;;6.11;100.00;96554.25;5019863;28;20030;-53
2023/12/21 10:12:08;;;;;;;997.45;257.48;;;;;;;6.18;100.00;96529.22;5019852;28;20045;-55
2023/12/21 10:14:34;;;;;;;357.70;169.55;;;;;;;7.22;100.00;96534.97;5024430;28;20156;-53
2023/12/21 10:17:01;;;;;;;514.45;175.40;;;;;;;8.33;100.00;96512.53;5018681;28;20053;-54
2023/12/21 10:19:26;;;;;;;422.40;243.20;;;;;;;9.50;100.00;96502.41;5019634;28;20029;-55
2023/12/21 10:21:53;;;;;;;382.75;240.30;;;;;;;9.08;100.00;96496.41;5020041;28;20077;-54
2023/12/21 10:24:18;;;;;;;434.92;237.13;;;;;;;9.48;100.00;96486.03;5018495;28;20033;-53
2023/12/21 10:26:45;;;;;;;372.08;193.55;;;;;;;8.67;100.00;96472.19;5020942;28;20046;-53
2023/12/21 10:29:17;;;;;;;433.83;223.07;;;;;;;9.26;100.00;96447.59;5018283;28;21601;-54
2023/12/21 10:31:47;;;;;;;621.38;437.00;;;;;;;8.72;100.00;96453.06;5017930;28;20045;-55
2023/12/21 10:34:14;;;;;;;405.55;244.77;;;;;;;9.59;100.00;96441.66;5019693;28;20064;-54
2023/12/21 10:36:44;;;;;;;511.90;283.02;;;;;;;8.34;100.00;96434.78;5012103;28;20572;-55
2023/12/21 10:39:14;;;;;;;602.38;229.85;;;;;;;8.14;100.00;96416.19;5010067;28;20017;-56
2023/12/21 10:41:43;;;;;;;509.85;342.42;;;;;;;8.07;100.00;96395.59;5014571;28;20038;-56
2023/12/21 10:44:15;;;;;;;713.28;387.17;;;;;;;8.95;100.00;96381.72;5012162;28;20164;-56
2023/12/21 10:46:43;;;;;;;547.08;298.80;;;;;;;9.30;100.00;96386.09;5015253;28;20037;-57
2023/12/21 10:49:12;;;;;;;681.65;305.02;;;;;;;9.14;100.00;96389.09;5014229;28;20010;-55
2023/12/21 10:51:39;;;;;;;460.80;233.13;;;;;;;9.06;100.00;96376.28;5014723;28;20034;-56
2023/12/21 10:54:10;;;;;;;658.17;370.73;;;;;;;8.79;100.00;96377.75;5017756;28;20413;-55
2023/12/21 10:56:39;;;;;;;498.65;321.45;;;;;;;9.41;100.00;96358.16;5014223;28;20041;-52